Time;durP1;ratioP1;P1;durP2;ratioP2;P2;SDS_P1;SDS_P2;PMS_P1;PMS_P2;Temp;Humidity;BMP_temperature;BMP_pressure;BME280_temperature;BME280_humidity;BME280_pressure;Samples;Min_cycle;Max_cycle;Signal;HPM_P1;HPM_P2
2023/11/30 00:01:16;;;;;;;10.25;5.72;;;;;;;;;;5043077;28;20048;-75
2023/11/30 00:03:47;;;;;;;11.77;4.70;;;;;;;;;;5040722;28;20060;-75
2023/11/30 00:06:17;;;;;;;13.88;5.70;;;;;;;;;;5038734;28;20064;-75
2023/11/30 00:08:49;;;;;;;7.47;5.03;;;;;;;;;;5039414;28;20053;-75
2023/11/30 00:11:20;;;;;;;8.48;4.32;;;;;;;;;;5039626;28;20049;-75
2023/11/30 00:13:49;;;;;;;8.10;3.97;;;;;;;;;;5039266;28;20048;-75
2023/11/30 00:16:20;;;;;;;14.40;10.68;;;;;;;;;;5039528;28;20495;-75
2023/11/30 00:18:50;;;;;;;7.15;6.38;;;;;;;;;;5039728;28;20512;-74
2023/11/30 00:21:20;;;;;;;9.82;6.55;;;;;;;;;;5039919;28;20045;-74
2023/11/30 00:23:51;;;;;;;7.97;5.45;;;;;;;;;;5039212;28;20048;-75
2023/11/30 00:26:21;;;;;;;7.78;5.57;;;;;;;;;;5039148;28;20043;-78
2023/11/30 00:28:55;;;;;;;8.88;6.35;;;;;;;;;;5039244;28;20053;-75
2023/11/30 00:31:26;;;;;;;9.23;5.38;;;;;;;;;;5039482;28;20044;-76
2023/11/30 00:33:58;;;;;;;11.73;6.50;;;;;;;;;;5038633;28;20483;-75
2023/11/30 00:36:29;;;;;;;11.02;6.28;;;;;;;;;;5037757;28;20879;-75
2023/11/30 00:38:59;;;;;;;8.52;6.15;;;;;;;;;;5038821;28;20519;-75
2023/11/30 00:41:29;;;;;;;15.60;5.70;;;;;;;;;;5039093;28;20049;-75
2023/11/30 00:44:00;;;;;;;7.05;5.60;;;;;;;;;;5039662;28;20049;-75
2023/11/30 00:46:31;;;;;;;7.03;6.28;;;;;;;;;;5039653;28;20048;-75
2023/11/30 00:49:02;;;;;;;5.93;5.38;;;;;;;;;;5039403;28;20041;-75
2023/11/30 00:51:34;;;;;;;12.63;4.85;;;;;;;;;;5040229;28;20055;-75
2023/11/30 00:54:05;;;;;;;11.43;4.10;;;;;;;;;;5039729;28;20055;-75
2023/11/30 00:56:36;;;;;;;7.72;7.13;;;;;;;;;;5037578;28;20839;-75
2023/11/30 00:59:06;;;;;;;14.70;5.00;;;;;;;;;;5039304;28;20040;-74
2023/11/30 01:01:37;;;;;;;15.32;4.38;;;;;;;;;;5038130;28;20045;-75
2023/11/30 01:04:08;;;;;;;10.63;4.18;;;;;;;;;;5039329;28;20060;-76
2023/11/30 01:06:38;;;;;;;8.45;4.85;;;;;;;;;;5039258;28;20045;-74
2023/11/30 01:09:08;;;;;;;6.75;3.78;;;;;;;;;;5039276;28;20064;-79
2023/11/30 01:11:42;;;;;;;9.52;4.82;;;;;;;;;;5038981;28;20045;-75
2023/11/30 01:14:14;;;;;;;9.20;4.22;;;;;;;;;;5038508;28;20066;-75
2023/11/30 01:16:44;;;;;;;6.32;3.72;;;;;;;;;;5038721;28;20056;-75
2023/11/30 01:19:15;;;;;;;12.80;3.72;;;;;;;;;;5039092;28;20045;-75
2023/11/30 01:21:45;;;;;;;8.95;3.83;;;;;;;;;;5039220;28;20044;-74
2023/11/30 01:24:15;;;;;;;5.68;4.13;;;;;;;;;;5039209;28;20048;-75
2023/11/30 01:26:46;;;;;;;8.85;3.97;;;;;;;;;;5043023;28;20048;-75
2023/11/30 01:29:17;;;;;;;12.00;4.40;;;;;;;;;;5043224;28;20068;-75
2023/11/30 01:31:48;;;;;;;10.65;4.63;;;;;;;;;;5041993;28;20076;-75
2023/11/30 01:34:18;;;;;;;9.13;6.30;;;;;;;;;;5043344;28;21092;-75
2023/11/30 01:36:49;;;;;;;6.97;4.57;;;;;;;;;;5040739;28;20057;-75
2023/11/30 01:39:20;;;;;;;6.85;3.85;;;;;;;;;;5041631;28;20061;-75
2023/11/30 01:41:51;;;;;;;11.27;4.50;;;;;;;;;;5043638;28;20060;-75
2023/11/30 01:44:21;;;;;;;6.90;6.07;;;;;;;;;;5043099;28;20416;-75
2023/11/30 01:46:54;;;;;;;6.90;4.05;;;;;;;;;;5044157;28;20045;-75
2023/11/30 01:49:25;;;;;;;9.80;4.90;;;;;;;;;;5045042;28;20055;-75
2023/11/30 01:51:55;;;;;;;12.13;4.38;;;;;;;;;;5045244;28;20051;-75
2023/11/30 01:54:26;;;;;;;7.85;3.75;;;;;;;;;;5044037;28;20056;-74
2023/11/30 01:56:57;;;;;;;10.13;4.68;;;;;;;;;;5044557;28;20129;-75
2023/11/30 01:59:29;;;;;;;7.30;4.15;;;;;;;;;;5043808;28;20049;-74
2023/11/30 02:02:00;;;;;;;10.55;3.63;;;;;;;;;;5043483;28;20056;-75
2023/11/30 02:04:34;;;;;;;16.67;6.70;;;;;;;;;;5044479;28;20420;-74
2023/11/30 02:07:05;;;;;;;5.95;3.85;;;;;;;;;;5044090;28;20045;-75
2023/11/30 02:09:36;;;;;;;8.25;7.55;;;;;;;;;;5043703;28;20412;-75
2023/11/30 02:12:06;;;;;;;9.38;3.92;;;;;;;;;;5045522;28;20052;-75
2023/11/30 02:14:36;;;;;;;7.55;4.10;;;;;;;;;;5043571;28;20056;-75
2023/11/30 02:17:06;;;;;;;14.15;4.10;;;;;;;;;;5045196;28;20511;-74
2023/11/30 02:19:39;;;;;;;10.77;4.50;;;;;;;;;;5043669;28;20044;-75
2023/11/30 02:22:09;;;;;;;11.85;5.40;;;;;;;;;;5044853;28;20403;-75
2023/11/30 02:24:40;;;;;;;11.73;4.60;;;;;;;;;;5045020;28;20040;-74
2023/11/30 02:27:10;;;;;;;7.57;4.22;;;;;;;;;;5044894;28;20520;-75
2023/11/30 02:29:40;;;;;;;10.52;4.22;;;;;;;;;;5044375;28;20044;-74
2023/11/30 02:32:10;;;;;;;6.43;4.00;;;;;;;;;;5044624;28;20053;-75
2023/11/30 02:34:41;;;;;;;5.13;4.18;;;;;;;;;;5043864;28;20060;-75
2023/11/30 02:37:11;;;;;;;8.40;3.65;;;;;;;;;;5043790;28;20045;-74
2023/11/30 02:39:41;;;;;;;4.70;3.60;;;;;;;;;;5042866;28;20064;-75
2023/11/30 02:42:12;;;;;;;6.75;3.85;;;;;;;;;;5027021;28;20547;-74
2023/11/30 02:44:42;;;;;;;10.20;6.00;;;;;;;;;;5044613;28;20052;-75
2023/11/30 02:47:13;;;;;;;6.93;5.53;;;;;;;;;;5044141;28;20055;-75
2023/11/30 02:49:44;;;;;;;6.47;5.80;;;;;;;;;;5044364;28;20045;-74
2023/11/30 02:52:15;;;;;;;7.25;4.00;;;;;;;;;;5044981;28;20084;-75
2023/11/30 02:54:45;;;;;;;7.25;4.03;;;;;;;;;;5044406;28;20052;-74
2023/11/30 02:57:16;;;;;;;5.57;3.55;;;;;;;;;;5044121;28;20052;-74
2023/11/30 02:59:46;;;;;;;9.63;4.63;;;;;;;;;;5043716;28;20039;-75
2023/11/30 03:02:17;;;;;;;7.53;3.97;;;;;;;;;;5042480;28;20063;-74
2023/11/30 03:04:48;;;;;;;12.93;4.45;;;;;;;;;;5042656;28;20538;-75
2023/11/30 03:07:19;;;;;;;5.40;4.20;;;;;;;;;;5043978;28;20057;-75
2023/11/30 03:09:49;;;;;;;7.80;4.15;;;;;;;;;;5044105;28;20041;-75
2023/11/30 03:12:19;;;;;;;10.57;5.38;;;;;;;;;;5043827;28;20504;-75
2023/11/30 03:14:50;;;;;;;5.07;4.22;;;;;;;;;;5043412;28;20053;-74
2023/11/30 03:17:22;;;;;;;7.22;4.95;;;;;;;;;;5042954;28;20522;-75
2023/11/30 03:19:52;;;;;;;7.68;7.07;;;;;;;;;;5043432;28;20412;-74
2023/11/30 03:22:23;;;;;;;7.25;4.25;;;;;;;;;;5043541;28;20052;-74
2023/11/30 03:24:53;;;;;;;7.13;4.18;;;;;;;;;;5042357;28;20052;-74
2023/11/30 03:27:24;;;;;;;6.30;4.35;;;;;;;;;;5042052;28;20064;-74
2023/11/30 03:29:54;;;;;;;9.27;3.72;;;;;;;;;;5042334;28;20528;-74
2023/11/30 03:32:24;;;;;;;4.75;4.45;;;;;;;;;;5043635;28;20506;-75
2023/11/30 03:34:55;;;;;;;5.28;4.07;;;;;;;;;;5042067;28;20071;-74
2023/11/30 03:37:26;;;;;;;7.07;4.40;;;;;;;;;;5042922;28;20056;-74
2023/11/30 03:39:57;;;;;;;7.25;4.35;;;;;;;;;;5042932;28;20044;-74
2023/11/30 03:42:26;;;;;;;9.48;4.70;;;;;;;;;;5042143;28;20530;-74
2023/11/30 03:44:57;;;;;;;7.55;4.20;;;;;;;;;;5042053;28;20103;-74
2023/11/30 03:47:28;;;;;;;5.32;4.25;;;;;;;;;;5042728;28;20060;-74
2023/11/30 03:49:58;;;;;;;8.60;4.32;;;;;;;;;;5042675;28;20045;-75
2023/11/30 03:52:31;;;;;;;7.40;4.63;;;;;;;;;;5043173;28;20049;-76
2023/11/30 03:55:01;;;;;;;8.82;5.18;;;;;;;;;;5043610;28;20068;-74
2023/11/30 03:57:31;;;;;;;7.05;5.45;;;;;;;;;;5043197;28;20049;-74
2023/11/30 04:00:04;;;;;;;5.32;4.82;;;;;;;;;;5043114;28;20049;-74
2023/11/30 04:02:34;;;;;;;8.60;5.28;;;;;;;;;;5043125;28;20048;-74
2023/11/30 04:05:05;;;;;;;8.70;5.00;;;;;;;;;;5042479;28;20045;-75
2023/11/30 04:07:36;;;;;;;12.05;7.38;;;;;;;;;;5042490;28;20051;-74
2023/11/30 04:10:08;;;;;;;16.08;5.53;;;;;;;;;;5042652;28;20052;-74
2023/11/30 04:12:39;;;;;;;7.28;4.65;;;;;;;;;;5041273;28;20051;-74
2023/11/30 04:15:10;;;;;;;11.52;6.13;;;;;;;;;;5042415;28;21040;-74
2023/11/30 04:17:40;;;;;;;9.45;5.70;;;;;;;;;;5042086;28;20101;-74
2023/11/30 04:20:11;;;;;;;11.88;5.82;;;;;;;;;;5025198;28;20057;-74
2023/11/30 04:22:43;;;;;;;11.65;6.07;;;;;;;;;;5042243;28;20049;-74
2023/11/30 04:25:14;;;;;;;11.07;8.05;;;;;;;;;;5042531;28;20578;-74
2023/11/30 04:27:43;;;;;;;9.13;6.00;;;;;;;;;;5042340;28;20044;-74
2023/11/30 04:30:14;;;;;;;14.13;5.85;;;;;;;;;;5042751;28;20324;-74
2023/11/30 04:32:44;;;;;;;9.75;5.63;;;;;;;;;;5042546;28;20041;-74
2023/11/30 04:35:15;;;;;;;10.43;5.75;;;;;;;;;;5042736;28;20056;-74
2023/11/30 04:37:45;;;;;;;9.30;6.13;;;;;;;;;;5042979;28;20053;-74
2023/11/30 04:40:15;;;;;;;12.07;6.00;;;;;;;;;;5041827;28;20045;-74
2023/11/30 04:42:45;;;;;;;12.02;5.47;;;;;;;;;;5042416;28;20048;-74
2023/11/30 04:45:16;;;;;;;11.48;5.70;;;;;;;;;;5041138;28;20115;-74
2023/11/30 04:47:47;;;;;;;10.98;5.80;;;;;;;;;;5041597;28;20048;-74
2023/11/30 04:50:17;;;;;;;12.90;5.38;;;;;;;;;;5040972;28;20488;-74
2023/11/30 04:56:45;;;;;;;14.38;7.47;;;;;;;;;;5042886;28;20049;-74
2023/11/30 04:59:15;;;;;;;10.82;6.90;;;;;;;;;;5041233;28;20057;-74
2023/11/30 05:01:46;;;;;;;11.85;7.38;;;;;;;;;;5048618;28;20052;-74
2023/11/30 05:04:17;;;;;;;11.43;7.07;;;;;;;;;;5049169;28;20041;-74
2023/11/30 05:06:48;;;;;;;8.82;6.00;;;;;;;;;;5048005;28;20171;-74
2023/11/30 05:09:19;;;;;;;11.25;7.82;;;;;;;;;;5048540;28;20076;-74
2023/11/30 05:11:50;;;;;;;15.52;7.00;;;;;;;;;;5048659;28;20044;-74
2023/11/30 05:14:20;;;;;;;14.05;7.32;;;;;;;;;;5048587;28;20048;-74
2023/11/30 05:16:51;;;;;;;11.52;7.10;;;;;;;;;;5048687;28;20048;-74
2023/11/30 05:19:21;;;;;;;12.73;6.82;;;;;;;;;;5048628;28;20216;-74
2023/11/30 05:21:52;;;;;;;15.88;10.23;;;;;;;;;;5048104;28;20419;-74
2023/11/30 05:24:23;;;;;;;12.35;7.68;;;;;;;;;;5048325;28;20048;-74
2023/11/30 05:26:54;;;;;;;11.85;7.00;;;;;;;;;;5048199;28;20504;-74
2023/11/30 05:29:25;;;;;;;10.90;9.85;;;;;;;;;;5048199;28;20410;-74
2023/11/30 05:31:55;;;;;;;10.35;7.78;;;;;;;;;;5048915;28;20037;-74
2023/11/30 05:34:26;;;;;;;16.95;7.43;;;;;;;;;;5047996;28;20059;-74
2023/11/30 05:36:57;;;;;;;8.77;6.57;;;;;;;;;;5048426;28;20048;-74
2023/11/30 05:39:28;;;;;;;11.93;7.68;;;;;;;;;;5048527;28;20335;-74
2023/11/30 05:41:59;;;;;;;13.88;8.10;;;;;;;;;;5048707;28;20048;-74
2023/11/30 05:44:29;;;;;;;12.70;8.55;;;;;;;;;;5048296;28;20048;-74
2023/11/30 05:47:00;;;;;;;12.40;8.30;;;;;;;;;;5048173;28;20041;-74
2023/11/30 05:49:30;;;;;;;15.63;7.45;;;;;;;;;;5047766;28;20519;-74
2023/11/30 05:52:00;;;;;;;15.27;9.20;;;;;;;;;;5048242;28;20045;-74
2023/11/30 05:54:30;;;;;;;14.82;8.38;;;;;;;;;;5048492;28;20048;-74
2023/11/30 05:57:02;;;;;;;16.00;7.93;;;;;;;;;;5048449;28;20052;-74
2023/11/30 05:59:32;;;;;;;14.10;7.88;;;;;;;;;;5048229;28;20049;-74
2023/11/30 06:02:03;;;;;;;13.93;8.43;;;;;;;;;;5048532;28;20045;-74
2023/11/30 06:04:34;;;;;;;12.88;7.72;;;;;;;;;;5047911;28;20049;-74
2023/11/30 06:07:04;;;;;;;13.80;7.95;;;;;;;;;;5047891;28;20609;-74
2023/11/30 06:09:35;;;;;;;11.02;7.80;;;;;;;;;;5048281;28;20052;-74
2023/11/30 06:12:06;;;;;;;13.02;7.78;;;;;;;;;;5044162;28;20591;-74
2023/11/30 06:14:37;;;;;;;13.90;12.48;;;;;;;;;;5045353;28;20423;-74
2023/11/30 06:17:07;;;;;;;15.50;7.70;;;;;;;;;;5044502;28;20055;-74
2023/11/30 06:19:38;;;;;;;10.15;8.32;;;;;;;;;;5044858;28;20080;-74
2023/11/30 06:22:10;;;;;;;18.00;7.57;;;;;;;;;;5043505;28;20052;-74
2023/11/30 06:24:40;;;;;;;13.23;7.45;;;;;;;;;;5045010;28;20064;-74
2023/11/30 06:27:10;;;;;;;9.15;8.27;;;;;;;;;;5044797;28;20546;-74
2023/11/30 06:29:41;;;;;;;9.35;7.35;;;;;;;;;;5045063;28;20060;-74
2023/11/30 06:32:12;;;;;;;13.85;7.88;;;;;;;;;;5043279;28;20057;-74
2023/11/30 06:34:43;;;;;;;10.95;7.97;;;;;;;;;;5042777;28;20061;-74
2023/11/30 06:37:13;;;;;;;11.15;7.50;;;;;;;;;;5044097;28;20523;-74
2023/11/30 06:39:43;;;;;;;11.90;8.15;;;;;;;;;;5043849;28;20526;-74
2023/11/30 06:42:13;;;;;;;12.15;10.05;;;;;;;;;;5044303;28;20382;-74
2023/11/30 06:44:45;;;;;;;12.32;7.95;;;;;;;;;;5044551;28;20504;-74
2023/11/30 06:47:16;;;;;;;12.25;7.50;;;;;;;;;;5044291;28;20281;-74
2023/11/30 06:49:47;;;;;;;16.42;8.13;;;;;;;;;;5044196;28;20056;-74
2023/11/30 06:52:17;;;;;;;14.48;8.23;;;;;;;;;;5044148;28;20056;-74
2023/11/30 06:54:48;;;;;;;14.15;7.78;;;;;;;;;;5043684;28;20096;-74
2023/11/30 06:57:18;;;;;;;17.52;8.40;;;;;;;;;;5044635;28;20045;-74
2023/11/30 06:59:48;;;;;;;27.45;8.55;;;;;;;;;;5044432;28;20040;-74
2023/11/30 07:02:19;;;;;;;34.50;7.55;;;;;;;;;;5042591;28;20053;-74
2023/11/30 07:04:49;;;;;;;16.58;8.48;;;;;;;;;;5044244;28;20512;-74
2023/11/30 07:07:20;;;;;;;16.20;7.50;;;;;;;;;;5043807;28;20056;-74
2023/11/30 07:10:04;;;;;;;18.23;7.40;;;;;;;;;;5043893;28;20053;-74
2023/11/30 07:12:33;;;;;;;18.98;7.28;;;;;;;;;;5043865;28;20044;-78
2023/11/30 07:15:07;;;;;;;13.35;7.07;;;;;;;;;;5044181;28;20595;-74
2023/11/30 07:17:37;;;;;;;12.80;7.28;;;;;;;;;;5044159;28;20495;-74
2023/11/30 07:20:08;;;;;;;14.60;8.18;;;;;;;;;;5043776;28;20488;-74
2023/11/30 07:22:38;;;;;;;13.23;8.90;;;;;;;;;;5043371;28;20053;-74
2023/11/30 07:25:09;;;;;;;8.57;7.25;;;;;;;;;;5043431;28;20045;-74
2023/11/30 07:27:40;;;;;;;29.02;9.18;;;;;;;;;;5043470;28;20045;-74
2023/11/30 07:30:11;;;;;;;14.05;7.88;;;;;;;;;;5041821;28;20103;-74
2023/11/30 07:32:44;;;;;;;37.70;8.38;;;;;;;;;;5043313;28;20053;-74
2023/11/30 07:35:16;;;;;;;13.27;7.63;;;;;;;;;;5043201;28;20055;-74
2023/11/30 07:37:47;;;;;;;11.05;7.63;;;;;;;;;;5043215;28;20057;-74
2023/11/30 07:40:18;;;;;;;16.80;8.18;;;;;;;;;;5043301;28;20049;-74
2023/11/30 07:42:48;;;;;;;12.60;10.68;;;;;;;;;;5043369;28;20389;-74
2023/11/30 07:45:18;;;;;;;10.18;7.35;;;;;;;;;;5043250;28;20060;-74
2023/11/30 07:47:49;;;;;;;11.20;7.63;;;;;;;;;;5042644;28;20053;-74
2023/11/30 07:50:20;;;;;;;7.88;7.07;;;;;;;;;;5042720;28;20060;-74
2023/11/30 07:52:52;;;;;;;13.18;11.10;;;;;;;;;;5043595;28;20401;-74
2023/11/30 07:55:22;;;;;;;11.50;7.03;;;;;;;;;;5043320;28;20151;-74
2023/11/30 07:57:53;;;;;;;10.63;7.43;;;;;;;;;;5042766;28;20041;-74
2023/11/30 08:00:24;;;;;;;9.20;6.53;;;;;;;;;;5043120;28;20067;-74
2023/11/30 08:02:54;;;;;;;9.10;6.57;;;;;;;;;;5042826;28;20060;-74
2023/11/30 08:05:25;;;;;;;13.32;6.45;;;;;;;;;;5042683;28;20060;-74
2023/11/30 08:07:56;;;;;;;9.98;6.05;;;;;;;;;;5041816;28;20053;-74
2023/11/30 08:10:26;;;;;;;11.98;7.45;;;;;;;;;;5042640;28;20048;-74
2023/11/30 08:12:56;;;;;;;10.02;8.23;;;;;;;;;;5040931;28;20792;-74
2023/11/30 08:15:26;;;;;;;14.88;6.57;;;;;;;;;;5043023;28;20048;-74
2023/11/30 08:17:57;;;;;;;9.88;8.75;;;;;;;;;;5042710;28;20855;-74
2023/11/30 08:20:28;;;;;;;12.52;6.05;;;;;;;;;;5025210;28;20056;-79
2023/11/30 08:22:58;;;;;;;12.82;6.55;;;;;;;;;;5042015;28;20529;-74
2023/11/30 08:25:28;;;;;;;14.43;7.93;;;;;;;;;;5043122;28;20044;-74
2023/11/30 08:27:58;;;;;;;12.00;6.65;;;;;;;;;;5043085;28;20052;-74
2023/11/30 08:30:29;;;;;;;10.18;6.63;;;;;;;;;;5042433;28;20048;-74
2023/11/30 08:33:00;;;;;;;15.68;6.45;;;;;;;;;;5042200;28;20041;-74
2023/11/30 08:35:34;;;;;;;16.80;7.20;;;;;;;;;;5041405;28;20516;-74
2023/11/30 08:38:04;;;;;;;16.65;6.53;;;;;;;;;;5042195;28;20056;-74
2023/11/30 08:40:35;;;;;;;20.65;7.32;;;;;;;;;;5042248;28;20053;-74
2023/11/30 08:43:06;;;;;;;22.17;6.65;;;;;;;;;;5042310;28;20049;-74
2023/11/30 08:45:37;;;;;;;21.13;7.05;;;;;;;;;;5042126;28;20052;-74
2023/11/30 08:48:10;;;;;;;27.25;8.30;;;;;;;;;;5042345;28;20381;-74
2023/11/30 08:58:49;;;;;;;22.38;9.35;;;;;;;;;;5042354;28;20040;-75
2023/11/30 09:01:19;;;;;;;22.88;11.77;;;;;;;;;;5041873;28;20389;-74
2023/11/30 09:04:04;;;;;;;23.00;9.10;;;;;;;;;;5041742;28;20048;-74
2023/11/30 09:06:38;;;;;;;33.15;17.45;;;;;;;;;;5042047;28;20403;-74
2023/11/30 09:09:09;;;;;;;25.73;10.70;;;;;;;;;;5042186;28;20041;-74
2023/11/30 09:11:40;;;;;;;30.38;11.35;;;;;;;;;;5041831;28;20053;-74
2023/11/30 09:14:11;;;;;;;37.78;15.88;;;;;;;;;;5042357;28;20416;-74
2023/11/30 09:16:40;;;;;;;30.38;13.15;;;;;;;;;;5041488;28;20052;-85
2023/11/30 09:19:13;;;;;;;37.63;13.90;;;;;;;;;;5041596;28;20496;-78
2023/11/30 09:21:44;;;;;;;39.47;14.95;;;;;;;;;;5041822;28;20053;-74
2023/11/30 09:24:17;;;;;;;42.90;15.20;;;;;;;;;;5041560;28;20064;-75
2023/11/30 09:26:51;;;;;;;42.45;15.55;;;;;;;;;;5041602;28;20052;-75
2023/11/30 09:29:22;;;;;;;37.40;22.00;;;;;;;;;;5042131;28;20053;-75
2023/11/30 09:31:52;;;;;;;37.92;15.00;;;;;;;;;;5041790;28;20496;-74
2023/11/30 09:34:26;;;;;;;37.08;15.27;;;;;;;;;;5041465;28;20048;-74
2023/11/30 09:36:58;;;;;;;38.13;13.68;;;;;;;;;;5040276;28;20057;-75
2023/11/30 09:39:29;;;;;;;32.88;14.18;;;;;;;;;;5039928;28;20083;-75
2023/11/30 09:42:00;;;;;;;37.92;14.82;;;;;;;;;;5041584;28;20053;-74
2023/11/30 09:44:31;;;;;;;35.17;15.77;;;;;;;;;;5041568;28;20041;-75
2023/11/30 09:47:02;;;;;;;31.85;15.65;;;;;;;;;;5044333;28;20531;-75
2023/11/30 09:49:32;;;;;;;40.88;15.15;;;;;;;;;;5044574;28;20060;-75
2023/11/30 09:52:03;;;;;;;33.17;15.07;;;;;;;;;;5044207;28;20053;-75
2023/11/30 09:54:34;;;;;;;36.78;13.77;;;;;;;;;;5043650;28;20579;-75
2023/11/30 09:57:05;;;;;;;31.85;14.10;;;;;;;;;;5044185;28;20049;-75
2023/11/30 09:59:35;;;;;;;31.45;15.57;;;;;;;;;;5044560;28;20044;-75
2023/11/30 10:02:09;;;;;;;29.25;14.13;;;;;;;;;;5045875;28;20037;-75
2023/11/30 10:04:44;;;;;;;27.05;12.57;;;;;;;;;;5043905;28;20045;-75
2023/11/30 10:07:15;;;;;;;25.05;12.27;;;;;;;;;;5045312;28;20052;-75
2023/11/30 10:09:46;;;;;;;20.45;9.57;;;;;;;;;;5045786;28;20049;-75
2023/11/30 10:12:19;;;;;;;27.00;9.73;;;;;;;;;;5045475;28;20049;-75
2023/11/30 10:15:00;;;;;;;28.17;9.88;;;;;;;;;;5044895;28;20504;-73
2023/11/30 10:17:30;;;;;;;25.63;9.48;;;;;;;;;;5043809;28;20060;-74
2023/11/30 10:20:04;;;;;;;25.05;10.63;;;;;;;;;;5044456;28;20519;-74
2023/11/30 10:22:34;;;;;;;19.52;9.95;;;;;;;;;;5044851;28;20052;-75
2023/11/30 10:25:05;;;;;;;21.17;9.95;;;;;;;;;;5044444;28;20048;-75
2023/11/30 10:27:37;;;;;;;19.67;10.80;;;;;;;;;;5044178;28;20825;-76
2023/11/30 10:30:10;;;;;;;23.38;9.63;;;;;;;;;;5044185;28;20492;-76
2023/11/30 10:32:43;;;;;;;30.85;11.40;;;;;;;;;;5045043;28;20041;-76
2023/11/30 10:35:17;;;;;;;21.27;10.40;;;;;;;;;;5042717;28;20049;-75
2023/11/30 10:37:53;;;;;;;20.15;9.50;;;;;;;;;;5044173;28;20060;-75
2023/11/30 10:40:24;;;;;;;16.58;9.73;;;;;;;;;;5044048;28;20167;-76
2023/11/30 10:42:57;;;;;;;17.05;8.68;;;;;;;;;;5044236;28;20056;-76
2023/11/30 10:45:41;;;;;;;21.50;9.55;;;;;;;;;;5044917;28;20049;-75
2023/11/30 10:48:12;;;;;;;22.70;11.32;;;;;;;;;;5044615;28;20637;-74
2023/11/30 10:50:45;;;;;;;19.20;10.60;;;;;;;;;;5044374;28;20052;-76
2023/11/30 10:53:44;;;;;;;20.45;10.88;;;;;;;;;;5043963;28;20047;-76
2023/11/30 10:56:17;;;;;;;20.77;10.30;;;;;;;;;;5043478;28;20060;-75
2023/11/30 10:58:48;;;;;;;16.23;9.63;;;;;;;;;;5043675;28;20060;-75
2023/11/30 11:01:18;;;;;;;16.65;9.98;;;;;;;;;;5042336;28;20049;-76
2023/11/30 11:03:58;;;;;;;21.20;10.40;;;;;;;;;;5043813;28;20049;-76
2023/11/30 11:06:29;;;;;;;21.67;11.82;;;;;;;;;;5044180;28;20044;-77
2023/11/30 11:09:01;;;;;;;23.35;12.40;;;;;;;;;;5043815;28;20052;-76
2023/11/30 11:11:32;;;;;;;21.80;12.35;;;;;;;;;;5043397;28;20044;-76
2023/11/30 11:14:02;;;;;;;20.25;10.13;;;;;;;;;;5043390;28;20045;-75
2023/11/30 11:16:41;;;;;;;22.25;13.63;;;;;;;;;;5043438;28;20393;-74
2023/11/30 11:19:14;;;;;;;18.65;10.65;;;;;;;;;;5043281;28;20045;-75
2023/11/30 11:21:48;;;;;;;23.95;11.10;;;;;;;;;;5044155;28;20052;-75
2023/11/30 11:24:22;;;;;;;20.92;11.15;;;;;;;;;;5043333;28;20052;-75
2023/11/30 11:27:00;;;;;;;25.30;11.18;;;;;;;;;;5041622;28;20511;-75
2023/11/30 11:29:31;;;;;;;26.85;11.73;;;;;;;;;;5042153;28;20534;-76
2023/11/30 11:32:13;;;;;;;19.90;11.20;;;;;;;;;;5042981;28;20064;-76
2023/11/30 11:34:44;;;;;;;18.98;12.07;;;;;;;;;;5041967;28;20423;-81
2023/11/30 11:37:15;;;;;;;22.95;10.48;;;;;;;;;;5040024;28;20075;-76
2023/11/30 11:39:45;;;;;;;21.80;11.95;;;;;;;;;;5041863;28;20053;-75
2023/11/30 11:42:16;;;;;;;22.63;11.63;;;;;;;;;;5040433;28;20622;-76
2023/11/30 11:44:48;;;;;;;25.45;12.50;;;;;;;;;;5042212;28;20052;-76
2023/11/30 11:47:21;;;;;;;21.25;11.32;;;;;;;;;;5042834;28;20045;-76
2023/11/30 11:49:52;;;;;;;23.85;12.32;;;;;;;;;;5042336;28;20060;-77
2023/11/30 11:52:25;;;;;;;26.15;11.60;;;;;;;;;;5042172;28;20048;-76
2023/11/30 11:55:24;;;;;;;24.55;11.88;;;;;;;;;;5043234;28;20045;-76
2023/11/30 11:57:57;;;;;;;22.17;11.40;;;;;;;;;;5041822;28;20072;-76
2023/11/30 12:00:27;;;;;;;24.33;12.98;;;;;;;;;;5043411;28;20049;-76
2023/11/30 12:03:07;;;;;;;25.42;11.85;;;;;;;;;;5042629;28;20110;-76
2023/11/30 12:05:47;;;;;;;31.92;12.80;;;;;;;;;;5042284;28;20053;-75
2023/11/30 12:08:29;;;;;;;27.05;12.27;;;;;;;;;;5042631;28;20049;-76
2023/11/30 12:10:59;;;;;;;21.63;11.93;;;;;;;;;;5040751;28;20053;-77
2023/11/30 12:13:30;;;;;;;25.25;13.43;;;;;;;;;;5042778;28;20771;-75
2023/11/30 12:16:00;;;;;;;25.15;13.55;;;;;;;;;;5042216;28;20354;-76
2023/11/30 12:18:31;;;;;;;27.00;12.55;;;;;;;;;;5043061;28;20053;-76
2023/11/30 12:21:01;;;;;;;26.23;13.15;;;;;;;;;;5043135;28;20052;-75
2023/11/30 12:23:32;;;;;;;28.20;14.88;;;;;;;;;;5043143;28;20484;-75
2023/11/30 12:26:02;;;;;;;29.73;14.10;;;;;;;;;;5042649;28;20041;-75
2023/11/30 12:28:33;;;;;;;34.15;14.30;;;;;;;;;;5042073;28;20052;-75
2023/11/30 12:31:05;;;;;;;22.83;14.07;;;;;;;;;;5040713;28;20075;-76
2023/11/30 12:33:35;;;;;;;27.00;14.27;;;;;;;;;;5042567;28;20053;-75
2023/11/30 12:36:06;;;;;;;20.77;12.80;;;;;;;;;;5042506;28;20419;-75
2023/11/30 12:38:37;;;;;;;29.13;13.57;;;;;;;;;;5042025;28;20084;-76
2023/11/30 12:41:07;;;;;;;24.10;13.05;;;;;;;;;;5040650;28;20048;-79
2023/11/30 12:43:38;;;;;;;20.77;13.10;;;;;;;;;;5041959;28;20695;-75
2023/11/30 12:46:09;;;;;;;22.67;10.95;;;;;;;;;;5041712;28;20496;-75
2023/11/30 12:48:42;;;;;;;18.90;11.45;;;;;;;;;;5042521;28;20067;-75
2023/11/30 12:51:13;;;;;;;26.63;12.43;;;;;;;;;;5042154;28;20053;-75
2023/11/30 12:53:44;;;;;;;19.10;13.77;;;;;;;;;;5042103;28;20412;-76
2023/11/30 12:56:15;;;;;;;21.95;12.02;;;;;;;;;;5042630;28;20048;-76
2023/11/30 12:58:47;;;;;;;21.70;12.98;;;;;;;;;;5046632;28;20048;-75
2023/11/30 13:01:18;;;;;;;21.88;12.23;;;;;;;;;;5041810;28;20059;-75
2023/11/30 13:03:47;;;;;;;28.77;18.73;;;;;;;;;;5041979;28;20431;-78
2023/11/30 13:06:18;;;;;;;23.63;15.32;;;;;;;;;;5041603;28;20511;-76
2023/11/30 13:08:49;;;;;;;29.73;16.75;;;;;;;;;;5041727;28;20045;-75
2023/11/30 13:11:19;;;;;;;32.17;18.92;;;;;;;;;;5040909;28;20068;-76
2023/11/30 13:13:49;;;;;;;26.52;15.38;;;;;;;;;;5041417;28;20101;-76
2023/11/30 13:16:23;;;;;;;26.92;17.08;;;;;;;;;;5042073;28;20519;-81
2023/11/30 13:18:54;;;;;;;21.65;13.43;;;;;;;;;;5042033;28;20045;-75
2023/11/30 13:21:25;;;;;;;27.65;14.93;;;;;;;;;;5043218;28;20076;-76
2023/11/30 13:23:56;;;;;;;28.63;16.88;;;;;;;;;;5045496;28;20060;-76
2023/11/30 13:26:25;;;;;;;30.38;18.33;;;;;;;;;;5044333;28;20041;-77
2023/11/30 13:28:56;;;;;;;30.98;17.75;;;;;;;;;;5045843;28;20045;-75
2023/11/30 13:31:27;;;;;;;30.52;18.90;;;;;;;;;;5046124;28;20048;-75
2023/11/30 13:33:57;;;;;;;31.75;18.30;;;;;;;;;;5045305;28;20056;-75
2023/11/30 13:36:27;;;;;;;29.67;19.17;;;;;;;;;;5045601;28;20064;-76
2023/11/30 13:39:00;;;;;;;32.45;18.20;;;;;;;;;;5045477;28;20522;-76
2023/11/30 13:41:34;;;;;;;36.90;18.98;;;;;;;;;;5045917;28;20041;-75
2023/11/30 13:44:04;;;;;;;33.72;19.48;;;;;;;;;;5045860;28;20120;-75
2023/11/30 13:46:37;;;;;;;30.25;17.48;;;;;;;;;;5044888;28;20060;-75
2023/11/30 13:49:13;;;;;;;29.92;18.50;;;;;;;;;;5045367;28;20527;-75
2023/11/30 13:51:45;;;;;;;35.75;19.25;;;;;;;;;;5045069;28;20049;-76
2023/11/30 13:54:16;;;;;;;37.80;18.25;;;;;;;;;;5045130;28;20112;-75
2023/11/30 13:56:46;;;;;;;31.92;18.80;;;;;;;;;;5044821;28;20049;-75
2023/11/30 13:59:16;;;;;;;41.70;20.58;;;;;;;;;;5043936;28;20068;-75
2023/11/30 14:01:46;;;;;;;42.40;21.52;;;;;;;;;;5045406;28;20075;-75
2023/11/30 14:04:17;;;;;;;35.10;19.25;;;;;;;;;;5045169;28;20045;-75
2023/11/30 14:06:56;;;;;;;34.47;19.50;;;;;;;;;;5044969;28;20045;-80
2023/11/30 14:09:28;;;;;;;30.05;19.42;;;;;;;;;;5045404;28;20071;-75
2023/11/30 14:11:58;;;;;;;33.13;18.50;;;;;;;;;;5043388;28;20041;-77
2023/11/30 14:14:29;;;;;;;31.38;18.52;;;;;;;;;;5045579;28;20056;-76
2023/11/30 14:17:03;;;;;;;30.08;18.85;;;;;;;;;;5045260;28;20052;-75
2023/11/30 14:19:33;;;;;;;37.08;22.17;;;;;;;;;;5044622;28;20380;-76
2023/11/30 14:22:03;;;;;;;34.03;19.15;;;;;;;;;;5045364;28;20514;-76
2023/11/30 14:24:34;;;;;;;31.58;18.55;;;;;;;;;;5043466;28;20053;-75
2023/11/30 14:27:05;;;;;;;31.85;18.55;;;;;;;;;;5043173;28;20111;-76
2023/11/30 14:29:37;;;;;;;34.38;22.08;;;;;;;;;;5043140;28;20709;-77
2023/11/30 14:32:08;;;;;;;36.92;18.58;;;;;;;;;;5041993;28;20064;-77
2023/11/30 14:34:38;;;;;;;32.40;18.63;;;;;;;;;;5044909;28;20053;-76
2023/11/30 14:37:08;;;;;;;35.13;19.10;;;;;;;;;;5044329;28;20049;-76
2023/11/30 14:39:39;;;;;;;30.95;18.60;;;;;;;;;;5048186;28;20448;-75
2023/11/30 14:42:14;;;;;;;27.35;17.25;;;;;;;;;;5044960;28;20056;-76
2023/11/30 14:44:44;;;;;;;28.27;16.67;;;;;;;;;;5047154;28;20044;-76
2023/11/30 14:47:16;;;;;;;27.73;16.33;;;;;;;;;;5044678;28;20052;-75
2023/11/30 14:49:47;;;;;;;27.95;16.75;;;;;;;;;;5044263;28;20040;-76
2023/11/30 14:52:18;;;;;;;27.17;16.35;;;;;;;;;;5044359;28;20045;-76
2023/11/30 14:54:51;;;;;;;26.65;14.32;;;;;;;;;;5042444;28;20053;-75
2023/11/30 14:57:22;;;;;;;19.95;15.20;;;;;;;;;;5045998;28;20419;-75
2023/11/30 14:59:52;;;;;;;19.42;12.60;;;;;;;;;;5047487;28;20041;-76
2023/11/30 15:02:22;;;;;;;27.00;12.57;;;;;;;;;;5044823;28;20053;-76
2023/11/30 15:04:53;;;;;;;14.95;9.45;;;;;;;;;;5046459;28;20041;-74